createdAt,value
2023-03-28T01:20:13.300Z,5.54
2023-03-28T01:35:11.010Z,7.26
2023-03-28T01:50:20.332Z,5.50
2023-03-28T02:05:15.612Z,7.33
2023-03-28T02:20:10.787Z,7.27
2023-03-28T02:34:59.917Z,5.40
2023-03-28T02:49:56.036Z,7.51
2023-03-28T03:04:49.487Z,8.97
2023-03-28T03:49:19.785Z,9.83
2023-03-28T04:04:10.196Z,8.93
2023-03-28T04:19:01.322Z,8.28
2023-03-28T04:33:52.166Z,7.44
2023-03-28T04:48:41.636Z,6.77
2023-03-28T05:03:32.408Z,7.48
2023-03-28T05:18:22.107Z,8.69
2023-03-28T05:33:11.900Z,9.73
2023-03-28T05:48:02.567Z,11.99
2023-03-28T06:02:52.108Z,8.49
2023-03-28T06:17:41.664Z,7.47
2023-03-28T06:32:31.971Z,10.39
2023-03-28T06:47:23.025Z,7.27
2023-03-28T07:02:14.641Z,5.23
2023-03-28T07:17:05.186Z,9.81
2023-03-28T07:31:56.460Z,10.04
2023-03-28T07:46:47.314Z,7.20
2023-03-28T08:01:38.225Z,7.00
2023-03-28T08:16:29.154Z,5.39
2023-03-28T08:31:20.747Z,5.68
2023-03-28T08:46:11.972Z,4.44
2023-03-28T09:01:02.089Z,4.24
2023-03-28T09:16:11.428Z,3.98
2023-03-28T09:31:05.530Z,3.39
2023-03-28T09:46:02.055Z,5.03
2023-03-28T10:15:46.047Z,3.17
2023-03-28T10:45:33.977Z,4.18
2023-03-28T11:00:34.801Z,2.21
2023-03-28T11:15:40.796Z,3.61
2023-03-28T11:30:34.760Z,4.10
2023-03-28T11:45:51.185Z,3.34
2023-03-28T12:01:08.899Z,5.69
2023-03-28T12:16:05.918Z,4.23
2023-03-28T12:31:03.246Z,2.74
2023-03-28T12:45:58.194Z,2.44
2023-03-28T13:00:58.165Z,3.49
2023-03-28T13:15:55.148Z,2.98
2023-03-28T13:30:48.690Z,3.99
2023-03-28T13:45:39.325Z,2.66
2023-03-28T14:00:29.351Z,3.16
2023-03-28T14:15:24.116Z,3.30
2023-03-28T14:30:30.323Z,2.97
2023-03-28T14:45:25.249Z,2.96
2023-03-28T15:44:58.988Z,3.42
2023-03-28T15:59:52.339Z,4.38
2023-03-28T18:46:56.822Z,3.58
2023-03-28T19:17:00.475Z,3.80
2023-03-28T19:31:50.483Z,4.98
2023-03-28T19:46:41.359Z,3.90
2023-03-28T20:01:31.741Z,5.19
2023-03-28T20:16:22.881Z,5.36
2023-03-28T20:31:15.636Z,3.77
2023-03-28T20:46:05.673Z,3.54
2023-03-28T21:00:56.357Z,4.81
